Time;durP1;ratioP1;P1;durP2;ratioP2;P2;SDS_P1;SDS_P2;PMS_P1;PMS_P2;Temp;Humidity;BMP_temperature;BMP_pressure;BME280_temperature;BME280_humidity;BME280_pressure;Samples;Min_cycle;Max_cycle;Signal;HPM_P1;HPM_P2
2022/04/05 00:00:17;;;;;;;14.05;2.35;;;5.50;99.90;;;;;;5055157;28;20686;-79
2022/04/05 00:02:43;;;;;;;24.55;3.13;;;5.50;99.90;;;;;;5041007;28;20035;-79
2022/04/05 00:05:09;;;;;;;11.60;2.72;;;5.50;99.90;;;;;;5038722;28;20028;-79
2022/04/05 00:07:35;;;;;;;24.88;3.63;;;5.50;99.90;;;;;;5054901;28;20032;-79
2022/04/05 00:10:01;;;;;;;15.88;3.08;;;5.50;99.90;;;;;;5059741;28;20032;-79
2022/04/05 00:12:27;;;;;;;18.95;2.40;;;5.50;99.90;;;;;;5069440;28;20029;-79
2022/04/05 00:14:53;;;;;;;22.02;3.05;;;5.60;99.90;;;;;;5055361;28;20060;-80
2022/04/05 00:17:19;;;;;;;19.90;2.85;;;5.70;99.90;;;;;;5049005;28;20111;-79
2022/04/05 00:19:45;;;;;;;17.42;2.85;;;5.70;99.90;;;;;;5028894;28;20067;-80
2022/04/05 00:22:10;;;;;;;17.75;2.92;;;5.80;99.90;;;;;;5052362;28;20066;-80
2022/04/05 00:24:36;;;;;;;11.90;2.33;;;5.80;99.90;;;;;;5070365;28;20056;-80
2022/04/05 00:27:02;;;;;;;15.85;2.65;;;5.80;99.90;;;;;;5036412;28;20549;-80
2022/04/05 00:29:28;;;;;;;13.65;2.05;;;5.80;99.90;;;;;;5073715;28;20028;-79
2022/04/05 00:31:53;;;;;;;16.02;2.20;;;5.80;99.90;;;;;;5037211;28;20047;-80
2022/04/05 00:34:24;;;;;;;23.45;2.83;;;5.80;99.90;;;;;;5087672;28;20495;-78
2022/04/05 00:36:53;;;;;;;13.05;1.98;;;5.70;99.90;;;;;;5070621;28;20478;-79
2022/04/05 00:39:19;;;;;;;16.85;2.65;;;5.60;99.90;;;;;;5054897;28;20032;-79
2022/04/05 00:41:46;;;;;;;15.82;2.15;;;5.60;99.90;;;;;;5060526;28;20020;-79
2022/04/05 00:44:11;;;;;;;17.40;2.28;;;5.60;99.90;;;;;;5066151;28;20048;-78
2022/04/05 00:46:37;;;;;;;9.02;2.42;;;5.60;99.90;;;;;;5054223;28;20024;-79
2022/04/05 00:49:03;;;;;;;10.63;1.92;;;5.50;99.90;;;;;;5070127;28;20028;-79
2022/04/05 00:51:28;;;;;;;12.77;2.90;;;5.50;99.90;;;;;;5066388;28;20040;-78
2022/04/05 00:54:03;;;;;;;20.20;2.72;;;5.50;99.90;;;;;;5057071;28;20071;-79
2022/04/05 00:56:32;;;;;;;17.75;2.85;;;5.40;99.90;;;;;;5090133;28;20024;-79
2022/04/05 00:59:00;;;;;;;12.82;2.42;;;5.40;99.90;;;;;;5069324;28;20410;-79
2022/04/05 01:01:27;;;;;;;14.48;2.10;;;5.40;99.90;;;;;;5072819;28;20602;-79
2022/04/05 01:03:53;;;;;;;18.13;2.97;;;5.40;99.90;;;;;;5073383;28;20028;-79
2022/04/05 01:06:30;;;;;;;21.02;2.55;;;5.50;99.90;;;;;;5051987;28;20032;-78
2022/04/05 01:08:57;;;;;;;16.10;2.72;;;5.50;99.90;;;;;;5059739;28;20033;-78
2022/04/05 01:11:23;;;;;;;15.50;1.95;;;5.50;99.90;;;;;;5050059;28;20561;-78
2022/04/05 01:13:52;;;;;;;11.27;1.52;;;5.60;99.90;;;;;;5064106;28;20044;-78
2022/04/05 01:16:19;;;;;;;19.58;2.05;;;5.50;99.90;;;;;;5048550;28;20032;-78
2022/04/05 01:18:45;;;;;;;12.00;2.25;;;5.50;99.90;;;;;;5030912;28;20484;-78
2022/04/05 01:21:11;;;;;;;13.75;1.92;;;5.40;99.90;;;;;;5059772;28;20116;-78
2022/04/05 01:23:36;;;;;;;14.93;2.25;;;5.50;99.90;;;;;;5083927;28;20029;-78
2022/04/05 01:26:02;;;;;;;15.15;2.10;;;5.60;99.90;;;;;;5056936;28;20062;-78
2022/04/05 01:28:28;;;;;;;19.00;2.20;;;5.60;99.90;;;;;;5042642;28;20029;-78
2022/04/05 01:30:54;;;;;;;11.18;1.73;;;5.70;99.90;;;;;;5045259;28;20033;-79
2022/04/05 01:33:20;;;;;;;15.43;1.80;;;5.60;99.90;;;;;;5058664;28;20036;-78
2022/04/05 01:35:47;;;;;;;14.00;2.05;;;5.60;99.90;;;;;;5057354;28;20822;-78
2022/04/05 01:38:13;;;;;;;16.40;2.03;;;5.70;99.90;;;;;;5054093;28;20041;-77
2022/04/05 01:40:39;;;;;;;12.48;2.33;;;5.60;99.90;;;;;;5053413;28;20089;-78
2022/04/05 01:43:05;;;;;;;20.15;2.78;;;5.60;99.90;;;;;;5051532;28;20896;-77
2022/04/05 01:45:31;;;;;;;10.32;2.08;;;5.60;99.90;;;;;;5037662;28;20024;-79
2022/04/05 01:47:58;;;;;;;10.25;2.45;;;5.50;99.90;;;;;;5073932;28;20035;-78
2022/04/05 01:50:24;;;;;;;17.83;3.38;;;5.40;99.90;;;;;;5041330;28;20036;-79
2022/04/05 01:52:50;;;;;;;13.25;2.00;;;5.30;99.90;;;;;;5038552;28;20420;-78
2022/04/05 01:55:16;;;;;;;13.43;1.80;;;5.30;99.90;;;;;;5070894;28;20395;-78
2022/04/05 01:57:42;;;;;;;13.80;2.10;;;5.20;99.90;;;;;;5071499;28;20039;-79
2022/04/05 02:00:14;;;;;;;9.88;1.85;;;5.20;99.90;;;;;;5078956;28;20116;-78
2022/04/05 02:02:41;;;;;;;16.55;1.95;;;5.30;99.90;;;;;;5053632;28;20035;-78
2022/04/05 02:05:07;;;;;;;10.43;1.67;;;5.20;99.90;;;;;;5054599;28;20021;-78
2022/04/05 02:07:33;;;;;;;12.05;1.70;;;5.20;99.90;;;;;;5055912;28;20021;-79
2022/04/05 02:09:59;;;;;;;14.98;2.60;;;5.10;99.90;;;;;;5055382;28;20043;-78
2022/04/05 02:12:24;;;;;;;15.15;2.15;;;5.10;99.90;;;;;;5056814;28;20115;-78
2022/04/05 02:14:50;;;;;;;11.93;1.90;;;5.10;99.90;;;;;;5066634;28;20025;-78
2022/04/05 02:17:16;;;;;;;15.38;2.33;;;5.10;99.90;;;;;;5028947;28;20037;-78
2022/04/05 02:19:43;;;;;;;12.90;2.33;;;5.10;99.90;;;;;;5055047;28;20036;-79
2022/04/05 02:22:09;;;;;;;18.70;2.45;;;5.20;99.90;;;;;;5066877;28;20523;-78
2022/04/05 02:24:35;;;;;;;13.40;1.60;;;5.20;99.90;;;;;;5052838;28;20036;-79
2022/04/05 02:27:01;;;;;;;10.15;1.25;;;5.20;99.90;;;;;;5053196;28;20031;-78
2022/04/05 02:29:27;;;;;;;14.63;1.63;;;5.20;99.90;;;;;;5054410;28;20512;-78
2022/04/05 02:31:53;;;;;;;19.77;2.33;;;5.20;99.90;;;;;;5040397;28;20089;-77
2022/04/05 02:34:18;;;;;;;9.52;2.30;;;5.20;99.90;;;;;;5075173;28;20025;-79
2022/04/05 02:36:45;;;;;;;9.73;1.50;;;5.30;99.90;;;;;;5057253;28;20040;-79
2022/04/05 02:39:12;;;;;;;8.13;1.70;;;5.30;99.90;;;;;;5074354;28;20032;-79
2022/04/05 02:41:38;;;;;;;11.82;2.80;;;5.40;99.90;;;;;;5036777;28;20031;-79
2022/04/05 02:44:04;;;;;;;12.73;2.15;;;5.30;99.90;;;;;;5045040;28;20533;-79
2022/04/05 02:46:32;;;;;;;21.05;2.88;;;5.20;99.90;;;;;;5064052;28;20043;-78
2022/04/05 02:48:57;;;;;;;9.30;1.75;;;5.20;99.90;;;;;;5043669;28;20093;-79
2022/04/05 02:51:23;;;;;;;16.30;2.95;;;5.20;99.90;;;;;;5063876;28;20056;-78
2022/04/05 02:53:49;;;;;;;12.45;2.28;;;5.10;99.90;;;;;;5081052;28;20037;-78
2022/04/05 02:56:16;;;;;;;11.80;2.15;;;5.10;99.90;;;;;;5041967;28;20027;-79
2022/04/05 02:58:43;;;;;;;12.43;1.88;;;5.00;99.90;;;;;;5061959;28;20047;-78
2022/04/05 03:01:09;;;;;;;11.13;2.10;;;4.90;99.90;;;;;;5079911;28;20024;-78
2022/04/05 03:03:35;;;;;;;9.68;1.88;;;5.00;99.90;;;;;;5043968;28;20126;-78
2022/04/05 03:06:01;;;;;;;16.00;2.00;;;5.00;99.90;;;;;;5060046;28;20075;-78
2022/04/05 03:08:26;;;;;;;14.65;1.85;;;5.00;99.90;;;;;;5059249;28;20051;-78
2022/04/05 03:10:53;;;;;;;12.02;1.65;;;5.00;99.90;;;;;;5045621;28;20025;-78
2022/04/05 03:13:19;;;;;;;9.27;2.10;;;5.00;99.90;;;;;;5048444;28;20029;-78
2022/04/05 03:15:45;;;;;;;12.02;1.70;;;5.00;99.90;;;;;;5061207;28;20048;-78
2022/04/05 03:18:11;;;;;;;11.00;2.22;;;4.90;99.90;;;;;;5056312;28;20040;-78
2022/04/05 03:20:37;;;;;;;9.90;2.10;;;4.90;99.90;;;;;;5075147;28;20473;-78
2022/04/05 03:23:04;;;;;;;12.75;1.42;;;4.90;99.90;;;;;;5060120;28;20028;-77
2022/04/05 03:25:30;;;;;;;13.40;1.77;;;4.90;99.90;;;;;;5047695;28;20016;-78
2022/04/05 03:28:01;;;;;;;12.23;1.80;;;4.80;99.90;;;;;;5066017;28;20029;-78
2022/04/05 03:30:28;;;;;;;11.23;1.40;;;4.80;99.90;;;;;;5066959;28;20025;-78
2022/04/05 03:32:54;;;;;;;11.63;1.50;;;4.80;99.90;;;;;;5048181;28;20037;-78
2022/04/05 03:35:20;;;;;;;10.73;1.60;;;4.80;99.90;;;;;;5082911;28;20025;-78
2022/04/05 03:37:45;;;;;;;13.77;2.10;;;4.80;99.90;;;;;;5066544;28;20029;-78
2022/04/05 03:40:12;;;;;;;11.93;1.58;;;4.80;99.90;;;;;;5052278;28;20094;-78
2022/04/05 03:42:38;;;;;;;11.48;1.50;;;4.70;99.90;;;;;;5067199;28;20029;-79
2022/04/05 03:45:05;;;;;;;17.00;2.30;;;4.80;99.90;;;;;;5076171;28;20017;-78
2022/04/05 03:47:31;;;;;;;13.45;1.58;;;4.70;99.90;;;;;;5065850;28;20037;-78
2022/04/05 03:49:56;;;;;;;11.27;1.52;;;4.70;99.90;;;;;;5068594;28;20040;-79
2022/04/05 03:52:22;;;;;;;7.03;1.50;;;4.60;99.90;;;;;;5056460;28;20080;-79
2022/04/05 03:54:48;;;;;;;8.85;1.50;;;4.60;99.90;;;;;;5033393;28;20040;-79
2022/04/05 03:57:15;;;;;;;9.98;1.83;;;4.70;99.90;;;;;;5065686;28;20048;-78
2022/04/05 03:59:41;;;;;;;8.75;1.85;;;4.70;99.90;;;;;;5047931;28;20033;-78
2022/04/05 04:02:07;;;;;;;13.73;2.42;;;4.60;99.90;;;;;;5056494;28;20141;-79
2022/04/05 04:04:32;;;;;;;11.35;1.50;;;4.60;99.90;;;;;;5055853;28;20036;-79
2022/04/05 04:06:58;;;;;;;7.20;1.38;;;4.60;99.90;;;;;;5064586;28;20021;-79
2022/04/05 04:09:24;;;;;;;10.23;1.20;;;4.60;99.90;;;;;;5062209;28;20029;-80
2022/04/05 04:11:50;;;;;;;8.27;1.75;;;4.70;99.90;;;;;;5040768;28;20848;-79
2022/04/05 04:14:16;;;;;;;12.38;1.88;;;4.70;99.90;;;;;;5051545;28;20032;-78
2022/04/05 04:16:42;;;;;;;11.30;1.50;;;4.70;99.90;;;;;;5052904;28;20120;-78
2022/04/05 04:19:08;;;;;;;6.65;1.63;;;4.60;99.90;;;;;;5040994;28;20092;-79
2022/04/05 04:21:34;;;;;;;9.02;1.67;;;4.60;99.90;;;;;;5066722;28;20028;-78
2022/04/05 04:24:00;;;;;;;16.13;1.55;;;4.70;99.90;;;;;;5043908;28;20021;-79
2022/04/05 04:26:25;;;;;;;10.82;1.75;;;4.60;99.90;;;;;;5050856;28;20070;-78
2022/04/05 04:29:00;;;;;;;12.27;1.50;;;4.60;99.90;;;;;;5040803;28;20435;-78
2022/04/05 04:31:26;;;;;;;12.38;1.35;;;4.50;99.90;;;;;;5038262;28;20032;-78
2022/04/05 04:33:52;;;;;;;12.35;1.40;;;4.50;99.90;;;;;;5094157;28;20029;-79
2022/04/05 04:36:18;;;;;;;12.20;1.60;;;4.50;99.90;;;;;;5070521;28;20045;-78
2022/04/05 04:38:44;;;;;;;11.85;1.30;;;4.40;99.90;;;;;;5056951;28;20166;-78
2022/04/05 04:41:10;;;;;;;12.18;1.80;;;4.40;99.90;;;;;;5059431;28;20029;-78
2022/04/05 04:43:36;;;;;;;17.23;2.05;;;4.40;99.90;;;;;;5044178;28;20024;-79
2022/04/05 04:46:01;;;;;;;10.68;1.83;;;4.40;99.90;;;;;;5066720;28;20102;-79
2022/04/05 04:48:28;;;;;;;16.02;2.42;;;4.40;99.90;;;;;;5061063;28;20039;-79
2022/04/05 04:50:53;;;;;;;13.27;2.38;;;4.40;99.90;;;;;;5040128;28;20043;-78
2022/04/05 04:53:19;;;;;;;11.63;1.92;;;4.50;99.90;;;;;;5085091;28;20044;-78
2022/04/05 04:55:45;;;;;;;8.27;2.10;;;4.40;99.90;;;;;;5068222;28;20036;-79
2022/04/05 04:58:10;;;;;;;13.98;1.92;;;4.40;99.90;;;;;;5077731;28;20107;-79
2022/04/05 05:00:36;;;;;;;12.02;1.63;;;4.50;99.90;;;;;;5047856;28;20037;-78
2022/04/05 05:03:01;;;;;;;18.15;2.13;;;4.50;99.90;;;;;;5082793;28;20279;-79
2022/04/05 05:05:28;;;;;;;12.20;1.80;;;4.50;99.90;;;;;;5074396;28;20024;-79
2022/04/05 05:07:54;;;;;;;13.50;2.03;;;4.50;99.90;;;;;;5064511;28;20156;-79
2022/04/05 05:10:22;;;;;;;12.40;2.10;;;4.60;99.90;;;;;;5061459;28;20056;-79
2022/04/05 05:12:48;;;;;;;13.00;2.00;;;4.60;99.90;;;;;;5047794;28;20044;-79
2022/04/05 05:15:18;;;;;;;17.38;2.20;;;4.60;99.90;;;;;;5049427;28;20062;-78
2022/04/05 05:17:45;;;;;;;18.85;3.15;;;4.70;99.90;;;;;;5069852;28;20062;-81
2022/04/05 05:20:13;;;;;;;11.70;2.08;;;4.70;99.90;;;;;;5057220;28;20028;-79
2022/04/05 05:22:41;;;;;;;12.65;1.42;;;4.70;99.90;;;;;;5053414;28;20179;-78
2022/04/05 05:25:08;;;;;;;16.30;2.10;;;4.80;99.90;;;;;;5080919;28;21339;-78
2022/04/05 05:27:34;;;;;;;8.23;1.50;;;4.80;99.90;;;;;;5052958;28;20028;-77
2022/04/05 05:30:00;;;;;;;9.15;1.70;;;4.90;99.90;;;;;;5070318;28;20056;-78
2022/04/05 05:32:26;;;;;;;12.88;1.83;;;4.90;99.90;;;;;;5054649;28;20455;-77
2022/04/05 05:34:52;;;;;;;14.15;2.00;;;4.90;99.90;;;;;;5071712;28;20059;-79
2022/04/05 05:37:17;;;;;;;8.45;1.42;;;4.80;99.90;;;;;;5054670;28;20063;-84
2022/04/05 05:39:43;;;;;;;10.32;2.03;;;4.70;99.90;;;;;;5038179;28;20040;-78
2022/04/05 05:42:09;;;;;;;11.10;1.73;;;4.70;99.90;;;;;;5056185;28;20082;-79
2022/04/05 05:44:35;;;;;;;12.27;1.70;;;4.70;99.90;;;;;;5078560;28;20099;-80
2022/04/05 05:47:09;;;;;;;7.25;1.35;;;4.70;99.90;;;;;;5040502;28;20789;-79
2022/04/05 05:49:34;;;;;;;7.72;1.88;;;4.70;99.90;;;;;;5073189;28;20035;-78
2022/04/05 05:52:00;;;;;;;15.38;2.53;;;4.70;99.90;;;;;;5087930;28;20025;-78
2022/04/05 05:54:26;;;;;;;9.65;1.77;;;4.80;99.90;;;;;;5074822;28;20036;-77
2022/04/05 05:56:51;;;;;;;10.27;2.20;;;4.80;99.90;;;;;;5068133;28;20067;-79
2022/04/05 05:59:17;;;;;;;12.80;1.98;;;4.90;99.90;;;;;;5053346;28;20020;-77
2022/04/05 06:01:42;;;;;;;13.15;2.30;;;4.90;99.90;;;;;;5055735;28;20551;-79
2022/04/05 06:04:08;;;;;;;10.80;2.20;;;4.80;99.90;;;;;;5059168;28;20455;-78
2022/04/05 06:06:34;;;;;;;9.20;1.55;;;4.90;99.90;;;;;;5065001;28;20062;-76
2022/04/05 06:08:59;;;;;;;6.13;1.85;;;4.90;99.90;;;;;;5042636;28;20182;-77
2022/04/05 06:11:25;;;;;;;7.10;2.00;;;4.90;99.90;;;;;;5075832;28;20087;-80
2022/04/05 06:13:52;;;;;;;10.65;2.10;;;5.00;99.90;;;;;;5042513;28;20029;-77
2022/04/05 06:16:18;;;;;;;12.38;2.45;;;5.00;99.90;;;;;;5063691;28;20041;-78
2022/04/05 06:18:47;;;;;;;10.23;2.22;;;4.90;99.90;;;;;;5037176;28;20032;-78
2022/04/05 06:21:14;;;;;;;12.40;2.38;;;5.00;99.90;;;;;;5033089;28;20032;-78
2022/04/05 06:23:39;;;;;;;7.68;2.15;;;5.10;99.90;;;;;;5049905;28;20058;-78
2022/04/05 06:26:05;;;;;;;11.57;1.98;;;5.20;99.90;;;;;;5070739;28;20040;-78
2022/04/05 06:28:31;;;;;;;12.23;2.00;;;5.20;99.90;;;;;;5037225;28;20107;-77
2022/04/05 06:30:57;;;;;;;8.48;2.08;;;5.30;99.90;;;;;;5046371;28;20058;-78
2022/04/05 06:33:23;;;;;;;10.88;2.45;;;5.40;99.90;;;;;;5058161;28;20043;-77
2022/04/05 06:35:54;;;;;;;11.48;1.75;;;5.50;99.90;;;;;;5026886;28;20112;-78
2022/04/05 06:38:20;;;;;;;13.52;2.08;;;5.60;99.90;;;;;;5023649;28;20039;-78
2022/04/05 06:40:47;;;;;;;10.55;1.92;;;5.60;99.90;;;;;;5066126;28;20558;-78
2022/04/05 06:43:14;;;;;;;10.35;1.73;;;5.70;99.90;;;;;;5063701;28;20028;-78
2022/04/05 06:45:41;;;;;;;10.32;1.75;;;5.80;99.90;;;;;;5053865;28;20025;-79
2022/04/05 06:48:09;;;;;;;9.80;2.05;;;5.80;99.90;;;;;;5017254;28;20168;-76
2022/04/05 06:50:36;;;;;;;11.43;1.65;;;5.90;99.90;;;;;;5040692;28;20411;-76
2022/04/05 06:53:03;;;;;;;12.02;1.80;;;6.00;99.90;;;;;;5048461;28;20025;-77
2022/04/05 06:55:30;;;;;;;7.13;1.27;;;5.90;99.90;;;;;;5036139;28;20046;-76
2022/04/05 06:57:56;;;;;;;8.05;1.50;;;5.90;99.90;;;;;;5031098;28;20025;-75
2022/04/05 07:00:23;;;;;;;9.73;1.58;;;6.00;99.90;;;;;;5048902;28;20036;-76
2022/04/05 07:02:51;;;;;;;9.23;1.63;;;6.00;99.90;;;;;;5063049;28;20025;-77
2022/04/05 07:05:17;;;;;;;13.35;2.35;;;6.00;99.90;;;;;;5033250;28;20033;-76
2022/04/05 07:07:43;;;;;;;8.15;1.38;;;6.00;99.90;;;;;;5055987;28;20020;-76
2022/04/05 07:10:11;;;;;;;9.40;1.40;;;6.00;99.90;;;;;;5061804;28;20353;-76
2022/04/05 07:12:37;;;;;;;11.10;1.50;;;5.90;99.90;;;;;;5046036;28;20040;-76
2022/04/05 07:15:05;;;;;;;7.00;1.50;;;6.00;99.90;;;;;;5022025;28;20086;-76
2022/04/05 07:17:31;;;;;;;12.45;2.20;;;6.00;99.90;;;;;;5047243;28;20097;-76
2022/04/05 07:19:58;;;;;;;6.75;1.67;;;6.00;99.90;;;;;;5034563;28;20040;-76
2022/04/05 07:22:25;;;;;;;7.55;1.48;;;6.00;99.90;;;;;;5041778;28;20021;-76
2022/04/05 07:24:51;;;;;;;10.80;2.13;;;6.00;99.90;;;;;;5046508;28;20074;-77
2022/04/05 07:27:17;;;;;;;13.00;1.75;;;6.10;99.90;;;;;;5031825;28;20028;-76
2022/04/05 07:29:42;;;;;;;7.15;1.30;;;6.10;99.90;;;;;;5064608;28;20094;-76
2022/04/05 07:32:09;;;;;;;6.18;2.00;;;6.00;99.90;;;;;;5066922;28;20024;-76
2022/04/05 07:34:34;;;;;;;6.65;1.50;;;6.10;99.90;;;;;;5033106;28;20028;-76
2022/04/05 07:37:00;;;;;;;5.97;1.20;;;6.00;99.90;;;;;;5051682;28;20039;-76
2022/04/05 07:39:26;;;;;;;5.95;1.60;;;6.10;99.90;;;;;;5031723;28;20123;-76
2022/04/05 07:41:52;;;;;;;7.80;1.58;;;6.20;99.90;;;;;;5049906;28;20055;-76
2022/04/05 07:44:18;;;;;;;9.32;1.50;;;6.20;99.90;;;;;;5049352;28;20637;-76
2022/04/05 07:46:45;;;;;;;8.68;1.17;;;6.30;99.90;;;;;;5071329;28;20036;-74
2022/04/05 07:49:11;;;;;;;10.23;2.25;;;6.30;99.90;;;;;;5055430;28;20096;-75
2022/04/05 07:51:36;;;;;;;8.77;1.40;;;6.50;99.90;;;;;;5039926;28;20056;-75
2022/04/05 07:54:04;;;;;;;10.00;1.55;;;6.60;99.90;;;;;;5067921;28;20032;-76
2022/04/05 07:56:30;;;;;;;9.20;1.75;;;6.50;99.90;;;;;;5045557;28;20801;-76
2022/04/05 07:58:59;;;;;;;11.07;1.98;;;6.50;99.90;;;;;;5032644;28;20044;-76
2022/04/05 08:01:29;;;;;;;7.97;1.48;;;6.70;99.90;;;;;;5078256;28;20694;-75
2022/04/05 08:03:56;;;;;;;7.65;1.30;;;6.90;99.90;;;;;;5085089;28;20039;-76
2022/04/05 08:06:27;;;;;;;8.95;1.55;;;7.00;99.90;;;;;;5054885;28;20044;-75
2022/04/05 08:08:54;;;;;;;12.48;1.50;;;7.00;99.90;;;;;;5089005;28;20024;-75
2022/04/05 08:11:19;;;;;;;15.77;1.92;;;6.90;99.90;;;;;;5086963;28;20924;-76
2022/04/05 08:13:45;;;;;;;7.20;1.85;;;6.90;99.90;;;;;;5038503;28;20040;-76
2022/04/05 08:16:11;;;;;;;12.68;1.63;;;7.00;99.90;;;;;;5063924;28;20040;-76
2022/04/05 08:18:36;;;;;;;7.38;1.33;;;7.00;99.90;;;;;;5048369;28;20032;-75
2022/04/05 08:21:02;;;;;;;7.97;1.92;;;7.20;99.90;;;;;;5040614;28;20031;-76
2022/04/05 08:23:28;;;;;;;10.00;1.35;;;7.10;99.90;;;;;;5049663;28;20021;-75
2022/04/05 08:25:54;;;;;;;9.73;1.35;;;7.10;99.90;;;;;;5066697;28;20511;-76
2022/04/05 08:28:19;;;;;;;9.43;1.60;;;7.20;99.90;;;;;;5049700;28;20025;-77
2022/04/05 08:30:47;;;;;;;8.60;1.63;;;7.40;99.90;;;;;;5068766;28;20115;-76
2022/04/05 08:33:12;;;;;;;11.73;1.52;;;7.50;99.90;;;;;;5045946;28;20017;-76
2022/04/05 08:35:39;;;;;;;9.82;1.48;;;7.60;99.90;;;;;;5056608;28;20031;-75
2022/04/05 08:38:06;;;;;;;6.95;1.23;;;7.70;99.90;;;;;;5074068;28;20024;-76
2022/04/05 08:40:31;;;;;;;8.98;1.50;;;7.70;99.90;;;;;;5081062;28;20056;-76
2022/04/05 08:42:57;;;;;;;6.10;1.48;;;7.70;99.90;;;;;;5030047;28;21714;-76
2022/04/05 08:45:25;;;;;;;10.55;1.85;;;7.60;99.90;;;;;;5048269;28;20027;-76
2022/04/05 08:47:53;;;;;;;10.05;1.40;;;7.70;99.90;;;;;;5070960;28;20032;-76
2022/04/05 08:50:22;;;;;;;8.32;1.95;;;7.80;99.90;;;;;;5052111;28;20040;-76
2022/04/05 08:52:48;;;;;;;9.43;1.33;;;7.80;99.90;;;;;;5049274;28;20033;-76
2022/04/05 08:55:15;;;;;;;5.20;1.08;;;7.70;99.90;;;;;;5032965;28;20029;-76
2022/04/05 08:57:41;;;;;;;6.47;0.90;;;7.50;99.90;;;;;;5065158;28;20223;-76
2022/04/05 09:00:10;;;;;;;6.38;1.38;;;7.40;99.90;;;;;;5043620;28;20497;-76
2022/04/05 09:02:36;;;;;;;4.13;1.48;;;7.20;99.90;;;;;;5060858;28;20020;-76
2022/04/05 09:05:04;;;;;;;10.70;1.75;;;7.10;99.90;;;;;;5039185;28;20824;-76
2022/04/05 09:07:31;;;;;;;4.57;0.88;;;7.00;99.90;;;;;;5030915;28;20025;-76
2022/04/05 09:10:15;;;;;;;6.63;1.20;;;7.00;99.90;;;;;;5065913;28;20141;-75
2022/04/05 09:12:46;;;;;;;9.65;1.65;;;7.10;99.90;;;;;;5076468;28;20028;-77
2022/04/05 09:15:19;;;;;;;;;;;7.20;99.90;;;;;;5039629;28;20028;-76
2022/04/05 09:17:47;;;;;;;12.57;2.17;;;7.30;99.90;;;;;;5056241;28;19935;-77
2022/04/05 09:20:14;;;;;;;8.27;1.52;;;7.40;99.90;;;;;;5053722;28;20051;-76
2022/04/05 09:22:41;;;;;;;9.82;1.92;;;7.50;99.90;;;;;;5035694;28;20021;-76
2022/04/05 09:25:09;;;;;;;3.55;1.00;;;7.60;99.90;;;;;;5051829;28;20039;-76
2022/04/05 09:27:50;;;;;;;5.88;1.42;;;7.50;99.90;;;;;;5051346;28;20024;-76
2022/04/05 09:30:22;;;;;;;7.63;1.55;;;7.50;99.90;;;;;;5070437;28;20036;-76
2022/04/05 09:32:48;;;;;;;6.65;1.50;;;7.50;99.90;;;;;;5052235;28;20060;-76
2022/04/05 09:35:16;;;;;;;4.85;1.00;;;7.40;99.90;;;;;;5049498;28;20071;-76
2022/04/05 09:37:42;;;;;;;8.50;1.30;;;7.40;99.90;;;;;;5072494;28;20032;-76
2022/04/05 09:40:34;;;;;;;4.97;1.23;;;7.20;99.90;;;;;;5072083;28;20506;-76
2022/04/05 09:43:08;;;;;;;9.65;1.58;;;7.20;99.90;;;;;;5066075;28;20494;-75
2022/04/05 09:46:03;;;;;;;7.63;1.00;;;7.40;99.90;;;;;;5044214;28;20020;-78
2022/04/05 09:48:35;;;;;;;6.80;1.52;;;7.50;99.90;;;;;;5070647;28;20554;-77
2022/04/05 09:51:16;;;;;;;7.60;1.75;;;7.60;99.90;;;;;;5049677;28;20024;-76
2022/04/05 09:53:55;;;;;;;11.70;1.85;;;7.70;99.90;;;;;;5068850;28;20032;-76
2022/04/05 09:56:27;;;;;;;5.90;1.20;;;7.80;99.90;;;;;;5086597;28;20525;-79
2022/04/05 09:58:55;;;;;;;8.05;1.15;;;7.90;99.90;;;;;;5065699;28;20035;-77
2022/04/05 10:01:26;;;;;;;9.80;1.45;;;8.10;99.90;;;;;;5071018;28;20086;-77
2022/04/05 10:04:04;;;;;;;527.97;330.05;;;8.30;99.90;;;;;;5067160;28;20067;-77
2022/04/05 10:06:38;;;;;;;171.98;90.78;;;8.30;99.90;;;;;;5055828;28;20513;-77
2022/04/05 10:09:04;;;;;;;310.98;142.77;;;8.20;99.90;;;;;;5060086;28;20032;-77
2022/04/05 10:11:33;;;;;;;96.40;50.83;;;8.10;99.90;;;;;;5049861;28;20112;-76
2022/04/05 10:13:59;;;;;;;21.73;11.80;;;8.00;99.90;;;;;;5067967;28;20024;-77
2022/04/05 10:16:28;;;;;;;8.05;2.30;;;7.80;99.90;;;;;;5037626;28;20033;-77
2022/04/05 10:18:59;;;;;;;11.10;1.48;;;7.80;99.90;;;;;;5064545;28;20086;-76
2022/04/05 10:21:30;;;;;;;11.88;1.95;;;7.80;99.90;;;;;;5066678;28;20111;-77
2022/04/05 10:23:57;;;;;;;9.90;2.28;;;8.00;99.90;;;;;;5028587;28;20396;-77
2022/04/05 10:26:29;;;;;;;4.53;1.00;;;8.10;99.90;;;;;;5062950;28;20025;-77
2022/04/05 10:28:58;;;;;;;5.10;1.30;;;8.10;99.90;;;;;;5049805;28;20032;-77
2022/04/05 10:31:31;;;;;;;7.63;2.00;;;8.10;99.90;;;;;;5048698;28;20456;-76
2022/04/05 10:34:11;;;;;;;6.28;1.38;;;8.20;99.90;;;;;;5044743;28;20056;-76
2022/04/05 10:36:37;;;;;;;8.93;1.70;;;8.10;99.90;;;;;;5032992;28;20031;-76
2022/04/05 10:39:22;;;;;;;7.85;1.20;;;8.10;99.90;;;;;;5047346;28;20028;-75
2022/04/05 10:42:10;;;;;;;7.63;1.00;;;8.10;99.90;;;;;;5055242;28;20082;-74
2022/04/05 10:44:37;;;;;;;9.25;1.10;;;8.00;99.90;;;;;;5068313;28;20024;-70
2022/04/05 10:47:06;;;;;;;8.80;1.42;;;7.90;99.90;;;;;;5063443;28;20043;-69
2022/04/05 10:49:47;;;;;;;4.50;1.65;;;7.90;99.90;;;;;;5062485;28;20067;-76
2022/04/05 10:52:20;;;;;;;4.50;1.33;;;7.90;99.90;;;;;;5045817;28;20198;-76
2022/04/05 10:54:47;;;;;;;5.93;1.00;;;7.80;99.90;;;;;;5059651;28;20037;-75
2022/04/05 10:57:27;;;;;;;7.50;1.10;;;7.60;99.90;;;;;;5050548;28;20027;-76
2022/04/05 11:00:05;;;;;;;5.05;1.00;;;7.40;99.90;;;;;;5060707;28;20025;-76
2022/04/05 11:02:37;;;;;;;3.78;1.00;;;7.30;99.90;;;;;;5082008;28;20021;-76
2022/04/05 11:05:14;;;;;;;8.57;1.45;;;7.20;99.90;;;;;;5035356;28;20039;-77
2022/04/05 11:07:52;;;;;;;4.63;1.17;;;7.20;99.90;;;;;;5050818;28;20032;-75
2022/04/05 11:10:44;;;;;;;5.43;1.60;;;7.30;99.90;;;;;;5071529;28;20063;-76
2022/04/05 11:13:19;;;;;;;6.32;1.45;;;7.50;99.90;;;;;;5023114;28;20115;-75
2022/04/05 11:15:50;;;;;;;5.10;1.30;;;7.60;99.90;;;;;;5066289;28;20495;-75
2022/04/05 11:18:22;;;;;;;4.82;1.05;;;7.70;99.90;;;;;;5065318;28;20024;-75
2022/04/05 11:20:51;;;;;;;6.50;1.75;;;7.70;99.90;;;;;;5044804;28;20037;-76
2022/04/05 11:23:18;;;;;;;9.20;1.60;;;7.90;99.90;;;;;;5047095;28;20020;-76
2022/04/05 11:25:45;;;;;;;5.00;1.20;;;7.90;99.90;;;;;;5050974;28;20677;-76
2022/04/05 11:28:20;;;;;;;3.38;1.00;;;7.90;99.90;;;;;;5066477;28;20032;-75
2022/04/05 11:30:52;;;;;;;6.43;1.35;;;7.90;99.90;;;;;;5072407;28;20036;-75
2022/04/05 11:33:26;;;;;;;8.55;1.65;;;8.00;99.90;;;;;;5067510;28;20020;-79
2022/04/05 11:35:59;;;;;;;8.23;1.33;;;8.10;99.90;;;;;;5076511;28;20028;-77
2022/04/05 11:38:34;;;;;;;6.40;1.50;;;8.10;99.90;;;;;;5089591;28;20096;-76
2022/04/05 11:41:24;;;;;;;6.00;1.20;;;8.00;99.90;;;;;;5032395;28;20020;-79
2022/04/05 11:43:55;;;;;;;6.05;1.40;;;7.80;99.90;;;;;;5037069;28;20166;-77
2022/04/05 11:46:28;;;;;;;4.30;1.13;;;7.60;99.90;;;;;;5067495;28;20040;-77
2022/04/05 11:48:56;;;;;;;8.50;1.40;;;7.70;99.90;;;;;;5049326;28;20059;-79
2022/04/05 11:51:32;;;;;;;2.90;1.00;;;7.60;99.90;;;;;;5054570;28;20087;-77
2022/04/05 11:54:11;;;;;;;3.05;1.02;;;7.50;99.90;;;;;;5063019;28;20404;-76
2022/04/05 11:56:41;;;;;;;4.20;1.08;;;7.50;99.90;;;;;;5049457;28;20437;-77
2022/04/05 11:59:09;;;;;;;8.70;1.45;;;7.70;99.90;;;;;;5054308;28;20131;-76
2022/04/05 12:01:40;;;;;;;6.28;1.55;;;7.70;99.90;;;;;;5041417;28;20396;-77
2022/04/05 12:04:08;;;;;;;5.72;1.35;;;7.70;99.90;;;;;;5043402;28;20057;-77
2022/04/05 12:06:37;;;;;;;5.65;1.38;;;7.60;99.90;;;;;;5031772;28;20033;-77
2022/04/05 12:09:05;;;;;;;3.88;1.42;;;7.70;99.90;;;;;;5079784;28;20021;-77
2022/04/05 12:11:32;;;;;;;6.22;1.10;;;7.50;99.90;;;;;;5068244;28;20376;-76
2022/04/05 12:14:09;;;;;;;7.00;1.73;;;7.60;99.90;;;;;;5068682;28;20020;-76
2022/04/05 12:16:52;;;;;;;4.85;1.33;;;7.70;99.90;;;;;;5048818;28;20082;-77
2022/04/05 12:19:30;;;;;;;4.60;1.55;;;7.80;99.90;;;;;;5044824;28;20029;-79
2022/04/05 12:22:01;;;;;;;4.43;1.27;;;7.80;99.90;;;;;;5049415;28;20066;-77
2022/04/05 12:24:28;;;;;;;4.93;1.65;;;7.80;99.90;;;;;;5057454;28;20028;-77
2022/04/05 12:27:02;;;;;;;3.80;1.10;;;7.80;99.90;;;;;;5054083;28;20032;-77
2022/04/05 12:29:29;;;;;;;6.80;1.42;;;7.70;99.90;;;;;;5061481;28;20099;-77
2022/04/05 12:32:04;;;;;;;7.22;1.10;;;7.60;99.90;;;;;;5049459;28;20040;-75
2022/04/05 12:34:30;;;;;;;5.82;1.10;;;7.60;99.90;;;;;;5061465;28;20485;-77
2022/04/05 12:36:58;;;;;;;8.90;1.40;;;7.60;99.90;;;;;;5043606;28;20035;-77
2022/04/05 12:39:29;;;;;;;6.22;0.90;;;7.50;99.90;;;;;;5050869;28;20086;-76
2022/04/05 12:42:03;;;;;;;7.05;1.38;;;7.60;99.90;;;;;;5050436;28;20466;-77
2022/04/05 12:44:31;;;;;;;5.05;1.08;;;7.70;99.90;;;;;;5051737;28;20439;-77
2022/04/05 12:46:59;;;;;;;4.45;1.27;;;7.60;99.90;;;;;;5043310;28;20025;-77
2022/04/05 12:49:32;;;;;;;4.75;1.42;;;7.50;99.90;;;;;;5062374;28;20082;-77
2022/04/05 12:52:10;;;;;;;3.22;1.00;;;7.70;99.90;;;;;;5071842;28;20028;-77
2022/04/05 12:54:39;;;;;;;2.88;1.23;;;7.80;99.90;;;;;;5070552;28;20191;-78